sensor_id;sensor_type;location;lat;lon;timestamp;temperature;humidity
2024;DHT22;1016;48.770;9.154;2023-08-31T00:02:11;18.50;99.90
2024;DHT22;1016;48.770;9.154;2023-08-31T00:04:37;18.70;99.90
2024;DHT22;1016;48.770;9.154;2023-08-31T00:07:03;18.90;99.90
2024;DHT22;1016;48.770;9.154;2023-08-31T00:09:29;18.70;99.90
2024;DHT22;1016;48.770;9.154;2023-08-31T00:11:57;18.70;99.90
2024;DHT22;1016;48.770;9.154;2023-08-31T00:14:26;18.70;99.90
2024;DHT22;1016;48.770;9.154;2023-08-31T00:16:52;18.70;99.90
2024;DHT22;1016;48.770;9.154;2023-08-31T00:19:17;18.60;99.90
2024;DHT22;1016;48.770;9.154;2023-08-31T00:21:43;18.60;99.90
2024;DHT22;1016;48.770;9.154;2023-08-31T00:24:09;18.60;99.90
2024;DHT22;1016;48.770;9.154;2023-08-31T00:26:36;18.60;99.90
2024;DHT22;1016;48.770;9.154;2023-08-31T00:29:09;18.50;99.90
2024;DHT22;1016;48.770;9.154;2023-08-31T00:31:34;18.50;99.90
2024;DHT22;1016;48.770;9.154;2023-08-31T00:34:01;18.50;99.90
2024;DHT22;1016;48.770;9.154;2023-08-31T00:36:29;18.60;99.90
2024;DHT22;1016;48.770;9.154;2023-08-31T00:38:54;18.50;99.90
2024;DHT22;1016;48.770;9.154;2023-08-31T00:41:21;18.50;99.90
2024;DHT22;1016;48.770;9.154;2023-08-31T00:43:47;18.50;99.90
2024;DHT22;1016;48.770;9.154;2023-08-31T00:46:14;18.50;99.90
2024;DHT22;1016;48.770;9.154;2023-08-31T00:48:40;18.50;99.90
2024;DHT22;1016;48.770;9.154;2023-08-31T00:51:06;18.50;99.90
2024;DHT22;1016;48.770;9.154;2023-08-31T00:53:33;18.50;99.90
2024;DHT22;1016;48.770;9.154;2023-08-31T00:55:59;18.60;99.90
2024;DHT22;1016;48.770;9.154;2023-08-31T00:58:25;18.60;99.90
2024;DHT22;1016;48.770;9.154;2023-08-31T01:06:28;18.40;99.90
2024;DHT22;1016;48.770;9.154;2023-08-31T01:09:16;18.50;99.90
2024;DHT22;1016;48.770;9.154;2023-08-31T01:12:02;18.50;99.90
2024;DHT22;1016;48.770;9.154;2023-08-31T01:14:34;18.40;99.90
2024;DHT22;1016;48.770;9.154;2023-08-31T01:17:04;18.50;99.90
2024;DHT22;1016;48.770;9.154;2023-08-31T01:19:49;18.40;99.90
2024;DHT22;1016;48.770;9.154;2023-08-31T01:22:40;18.40;99.90
2024;DHT22;1016;48.770;9.154;2023-08-31T01:25:09;18.40;99.90
2024;DHT22;1016;48.770;9.154;2023-08-31T01:27:35;18.40;99.90
2024;DHT22;1016;48.770;9.154;2023-08-31T01:30:02;18.40;99.90
2024;DHT22;1016;48.770;9.154;2023-08-31T01:32:29;18.40;99.90
2024;DHT22;1016;48.770;9.154;2023-08-31T01:34:55;18.40;99.90
2024;DHT22;1016;48.770;9.154;2023-08-31T01:37:34;18.40;99.90
2024;DHT22;1016;48.770;9.154;2023-08-31T01:40:18;18.40;99.90
2024;DHT22;1016;48.770;9.154;2023-08-31T01:42:45;18.30;99.90
2024;DHT22;1016;48.770;9.154;2023-08-31T01:45:14;18.30;99.90
2024;DHT22;1016;48.770;9.154;2023-08-31T01:47:41;18.30;99.90
2024;DHT22;1016;48.770;9.154;2023-08-31T01:50:07;18.30;99.90
2024;DHT22;1016;48.770;9.154;2023-08-31T01:52:32;18.30;99.90
2024;DHT22;1016;48.770;9.154;2023-08-31T01:54:58;18.30;99.90
2024;DHT22;1016;48.770;9.154;2023-08-31T01:57:24;18.30;99.90
2024;DHT22;1016;48.770;9.154;2023-08-31T01:59:49;18.30;99.90
2024;DHT22;1016;48.770;9.154;2023-08-31T02:02:15;18.30;99.90
2024;DHT22;1016;48.770;9.154;2023-08-31T02:04:43;18.40;99.90
2024;DHT22;1016;48.770;9.154;2023-08-31T02:07:08;18.20;99.90
2024;DHT22;1016;48.770;9.154;2023-08-31T02:09:34;18.30;99.90
2024;DHT22;1016;48.770;9.154;2023-08-31T02:11:59;18.30;99.90
2024;DHT22;1016;48.770;9.154;2023-08-31T02:14:25;18.20;99.90
2024;DHT22;1016;48.770;9.154;2023-08-31T02:16:50;18.40;99.90
2024;DHT22;1016;48.770;9.154;2023-08-31T02:19:16;18.20;99.90
2024;DHT22;1016;48.770;9.154;2023-08-31T02:21:42;18.20;99.90
2024;DHT22;1016;48.770;9.154;2023-08-31T02:24:07;18.00;99.90
2024;DHT22;1016;48.770;9.154;2023-08-31T02:26:35;18.20;99.90
2024;DHT22;1016;48.770;9.154;2023-08-31T02:29:02;18.40;99.90
2024;DHT22;1016;48.770;9.154;2023-08-31T02:31:28;18.20;99.90
2024;DHT22;1016;48.770;9.154;2023-08-31T02:33:53;18.30;99.90
2024;DHT22;1016;48.770;9.154;2023-08-31T02:36:19;18.20;99.90
2024;DHT22;1016;48.770;9.154;2023-08-31T02:38:46;18.20;99.90
2024;DHT22;1016;48.770;9.154;2023-08-31T02:41:12;18.30;99.90
2024;DHT22;1016;48.770;9.154;2023-08-31T02:43:38;18.20;99.90
2024;DHT22;1016;48.770;9.154;2023-08-31T02:46:04;18.40;99.90
2024;DHT22;1016;48.770;9.154;2023-08-31T02:48:32;18.20;99.90
2024;DHT22;1016;48.770;9.154;2023-08-31T02:50:58;18.20;99.90
2024;DHT22;1016;48.770;9.154;2023-08-31T02:53:27;18.30;99.90
2024;DHT22;1016;48.770;9.154;2023-08-31T02:55:53;18.10;99.90
2024;DHT22;1016;48.770;9.154;2023-08-31T02:58:18;18.20;99.90
2024;DHT22;1016;48.770;9.154;2023-08-31T03:00:44;18.20;99.90
2024;DHT22;1016;48.770;9.154;2023-08-31T03:03:13;18.20;99.90
2024;DHT22;1016;48.770;9.154;2023-08-31T03:05:39;18.10;99.90
2024;DHT22;1016;48.770;9.154;2023-08-31T03:08:05;18.10;99.90
2024;DHT22;1016;48.770;9.154;2023-08-31T03:10:31;18.10;99.90
2024;DHT22;1016;48.770;9.154;2023-08-31T03:12:56;18.10;99.90
2024;DHT22;1016;48.770;9.154;2023-08-31T03:15:24;18.10;99.90
2024;DHT22;1016;48.770;9.154;2023-08-31T03:17:49;18.10;99.90
2024;DHT22;1016;48.770;9.154;2023-08-31T03:20:15;18.10;99.90
2024;DHT22;1016;48.770;9.154;2023-08-31T03:22:41;18.20;99.90
2024;DHT22;1016;48.770;9.154;2023-08-31T03:25:07;18.10;99.90
2024;DHT22;1016;48.770;9.154;2023-08-31T03:27:33;18.10;99.90
2024;DHT22;1016;48.770;9.154;2023-08-31T03:29:59;18.10;99.90
2024;DHT22;1016;48.770;9.154;2023-08-31T03:32:24;18.10;99.90
2024;DHT22;1016;48.770;9.154;2023-08-31T03:34:50;18.00;99.90
2024;DHT22;1016;48.770;9.154;2023-08-31T03:37:16;18.00;99.90
2024;DHT22;1016;48.770;9.154;2023-08-31T03:39:43;18.00;99.90
2024;DHT22;1016;48.770;9.154;2023-08-31T03:42:09;18.00;99.90
2024;DHT22;1016;48.770;9.154;2023-08-31T03:44:35;18.10;99.90
2024;DHT22;1016;48.770;9.154;2023-08-31T03:47:01;18.00;99.90
2024;DHT22;1016;48.770;9.154;2023-08-31T03:49:26;18.00;99.90
2024;DHT22;1016;48.770;9.154;2023-08-31T03:51:52;18.00;99.90
2024;DHT22;1016;48.770;9.154;2023-08-31T03:54:19;18.00;99.90
2024;DHT22;1016;48.770;9.154;2023-08-31T03:56:45;17.90;99.90
2024;DHT22;1016;48.770;9.154;2023-08-31T03:59:12;18.00;99.90
2024;DHT22;1016;48.770;9.154;2023-08-31T04:01:38;17.90;99.90
2024;DHT22;1016;48.770;9.154;2023-08-31T04:04:04;18.00;99.90
2024;DHT22;1016;48.770;9.154;2023-08-31T04:06:30;18.10;99.90
2024;DHT22;1016;48.770;9.154;2023-08-31T04:08:55;18.00;99.90
2024;DHT22;1016;48.770;9.154;2023-08-31T04:11:22;18.00;99.90
2024;DHT22;1016;48.770;9.154;2023-08-31T04:13:48;18.00;99.90
2024;DHT22;1016;48.770;9.154;2023-08-31T04:16:14;17.90;99.90
2024;DHT22;1016;48.770;9.154;2023-08-31T04:18:39;18.00;99.90
2024;DHT22;1016;48.770;9.154;2023-08-31T04:21:06;17.90;99.90
2024;DHT22;1016;48.770;9.154;2023-08-31T04:23:31;17.90;99.90
2024;DHT22;1016;48.770;9.154;2023-08-31T04:25:57;18.00;99.90
2024;DHT22;1016;48.770;9.154;2023-08-31T04:28:23;17.90;99.90
2024;DHT22;1016;48.770;9.154;2023-08-31T04:30:49;18.00;99.90
2024;DHT22;1016;48.770;9.154;2023-08-31T04:33:15;18.00;99.90
2024;DHT22;1016;48.770;9.154;2023-08-31T04:35:41;18.00;99.90
2024;DHT22;1016;48.770;9.154;2023-08-31T04:38:07;17.90;99.90
2024;DHT22;1016;48.770;9.154;2023-08-31T04:40:33;17.80;99.90
2024;DHT22;1016;48.770;9.154;2023-08-31T04:42:58;18.00;99.90
2024;DHT22;1016;48.770;9.154;2023-08-31T04:45:24;18.10;99.90
2024;DHT22;1016;48.770;9.154;2023-08-31T04:47:50;18.00;99.90
2024;DHT22;1016;48.770;9.154;2023-08-31T04:50:16;17.90;99.90
2024;DHT22;1016;48.770;9.154;2023-08-31T04:52:42;18.00;99.90
2024;DHT22;1016;48.770;9.154;2023-08-31T04:55:08;18.00;99.90
2024;DHT22;1016;48.770;9.154;2023-08-31T04:57:35;17.90;99.90
2024;DHT22;1016;48.770;9.154;2023-08-31T05:00:01;17.90;99.90
2024;DHT22;1016;48.770;9.154;2023-08-31T05:02:27;18.00;99.90
2024;DHT22;1016;48.770;9.154;2023-08-31T05:04:53;18.10;99.90
2024;DHT22;1016;48.770;9.154;2023-08-31T05:07:19;17.90;99.90
2024;DHT22;1016;48.770;9.154;2023-08-31T05:09:44;18.00;99.90
2024;DHT22;1016;48.770;9.154;2023-08-31T05:12:10;17.90;99.90
2024;DHT22;1016;48.770;9.154;2023-08-31T05:14:36;17.90;99.90
2024;DHT22;1016;48.770;9.154;2023-08-31T05:17:06;17.90;99.90
2024;DHT22;1016;48.770;9.154;2023-08-31T05:19:31;17.90;99.90
2024;DHT22;1016;48.770;9.154;2023-08-31T05:21:58;18.10;99.90
2024;DHT22;1016;48.770;9.154;2023-08-31T05:24:24;17.90;99.90
2024;DHT22;1016;48.770;9.154;2023-08-31T05:26:49;17.80;99.90
2024;DHT22;1016;48.770;9.154;2023-08-31T05:29:15;17.90;99.90
2024;DHT22;1016;48.770;9.154;2023-08-31T05:31:41;17.90;99.90
2024;DHT22;1016;48.770;9.154;2023-08-31T05:34:09;17.90;99.90
2024;DHT22;1016;48.770;9.154;2023-08-31T05:36:35;17.80;99.90
2024;DHT22;1016;48.770;9.154;2023-08-31T05:39:01;17.90;99.90
2024;DHT22;1016;48.770;9.154;2023-08-31T05:41:27;17.80;99.90
2024;DHT22;1016;48.770;9.154;2023-08-31T05:43:53;17.80;99.90
2024;DHT22;1016;48.770;9.154;2023-08-31T05:46:18;17.80;99.90
2024;DHT22;1016;48.770;9.154;2023-08-31T05:48:44;17.80;99.90
2024;DHT22;1016;48.770;9.154;2023-08-31T05:51:10;17.80;99.90
2024;DHT22;1016;48.770;9.154;2023-08-31T05:53:35;17.80;99.90
2024;DHT22;1016;48.770;9.154;2023-08-31T05:56:01;17.80;99.90
2024;DHT22;1016;48.770;9.154;2023-08-31T05:58:34;17.80;99.90
2024;DHT22;1016;48.770;9.154;2023-08-31T06:01:01;17.80;99.90
2024;DHT22;1016;48.770;9.154;2023-08-31T06:03:27;17.80;99.90
2024;DHT22;1016;48.770;9.154;2023-08-31T06:05:54;17.80;99.90
2024;DHT22;1016;48.770;9.154;2023-08-31T06:08:19;17.70;99.90
2024;DHT22;1016;48.770;9.154;2023-08-31T06:10:45;17.80;99.90
2024;DHT22;1016;48.770;9.154;2023-08-31T06:13:10;17.70;99.90
2024;DHT22;1016;48.770;9.154;2023-08-31T06:15:37;17.80;99.90
2024;DHT22;1016;48.770;9.154;2023-08-31T06:18:04;17.80;99.90
2024;DHT22;1016;48.770;9.154;2023-08-31T06:20:32;17.80;99.90
2024;DHT22;1016;48.770;9.154;2023-08-31T06:22:58;17.70;99.90
2024;DHT22;1016;48.770;9.154;2023-08-31T06:25:24;17.80;99.90
2024;DHT22;1016;48.770;9.154;2023-08-31T06:27:49;17.70;99.90
2024;DHT22;1016;48.770;9.154;2023-08-31T06:30:15;17.80;99.90
2024;DHT22;1016;48.770;9.154;2023-08-31T06:32:44;17.80;99.90
2024;DHT22;1016;48.770;9.154;2023-08-31T06:35:14;17.80;99.90
2024;DHT22;1016;48.770;9.154;2023-08-31T06:37:44;17.80;99.90
2024;DHT22;1016;48.770;9.154;2023-08-31T06:40:11;17.90;99.90
2024;DHT22;1016;48.770;9.154;2023-08-31T06:42:37;17.80;99.90
2024;DHT22;1016;48.770;9.154;2023-08-31T06:45:07;17.80;99.90
2024;DHT22;1016;48.770;9.154;2023-08-31T06:47:34;17.80;99.90
2024;DHT22;1016;48.770;9.154;2023-08-31T06:50:03;17.80;99.90
2024;DHT22;1016;48.770;9.154;2023-08-31T06:52:32;17.70;99.90
2024;DHT22;1016;48.770;9.154;2023-08-31T06:54:57;17.90;99.90
2024;DHT22;1016;48.770;9.154;2023-08-31T06:57:24;17.80;99.90
2024;DHT22;1016;48.770;9.154;2023-08-31T06:59:50;17.90;99.90
2024;DHT22;1016;48.770;9.154;2023-08-31T07:02:16;18.10;99.90
2024;DHT22;1016;48.770;9.154;2023-08-31T07:04:41;18.00;99.90
2024;DHT22;1016;48.770;9.154;2023-08-31T07:07:08;18.00;99.90
2024;DHT22;1016;48.770;9.154;2023-08-31T07:09:42;18.00;99.90
2024;DHT22;1016;48.770;9.154;2023-08-31T07:12:08;18.00;99.90
2024;DHT22;1016;48.770;9.154;2023-08-31T07:14:34;18.10;99.90
2024;DHT22;1016;48.770;9.154;2023-08-31T07:16:59;18.10;99.90
2024;DHT22;1016;48.770;9.154;2023-08-31T07:19:25;18.10;99.90
2024;DHT22;1016;48.770;9.154;2023-08-31T07:21:52;18.20;99.90
2024;DHT22;1016;48.770;9.154;2023-08-31T07:24:24;18.20;99.90
2024;DHT22;1016;48.770;9.154;2023-08-31T07:26:50;18.20;99.90
2024;DHT22;1016;48.770;9.154;2023-08-31T07:29:16;18.30;99.90
2024;DHT22;1016;48.770;9.154;2023-08-31T07:31:42;18.20;99.90
2024;DHT22;1016;48.770;9.154;2023-08-31T07:34:08;18.20;99.90
2024;DHT22;1016;48.770;9.154;2023-08-31T07:36:34;18.20;99.90
2024;DHT22;1016;48.770;9.154;2023-08-31T07:39:00;18.30;99.90
2024;DHT22;1016;48.770;9.154;2023-08-31T07:41:28;18.20;99.90
2024;DHT22;1016;48.770;9.154;2023-08-31T07:43:53;18.30;99.90
2024;DHT22;1016;48.770;9.154;2023-08-31T07:46:19;18.40;99.90
2024;DHT22;1016;48.770;9.154;2023-08-31T07:48:45;18.40;99.90
2024;DHT22;1016;48.770;9.154;2023-08-31T07:51:13;18.30;99.90
2024;DHT22;1016;48.770;9.154;2023-08-31T07:53:39;18.50;99.90
2024;DHT22;1016;48.770;9.154;2023-08-31T07:56:05;18.40;99.90
2024;DHT22;1016;48.770;9.154;2023-08-31T07:58:30;18.30;99.90
2024;DHT22;1016;48.770;9.154;2023-08-31T08:01:10;18.50;99.90
2024;DHT22;1016;48.770;9.154;2023-08-31T08:03:36;18.40;99.90
2024;DHT22;1016;48.770;9.154;2023-08-31T08:06:01;18.50;99.90
2024;DHT22;1016;48.770;9.154;2023-08-31T08:08:28;18.60;99.90
2024;DHT22;1016;48.770;9.154;2023-08-31T08:10:54;18.40;99.90
2024;DHT22;1016;48.770;9.154;2023-08-31T08:13:20;18.40;99.90
2024;DHT22;1016;48.770;9.154;2023-08-31T08:15:46;18.40;99.90
2024;DHT22;1016;48.770;9.154;2023-08-31T08:18:17;18.50;99.90
2024;DHT22;1016;48.770;9.154;2023-08-31T08:20:42;18.60;99.90
2024;DHT22;1016;48.770;9.154;2023-08-31T08:23:08;18.60;99.90
2024;DHT22;1016;48.770;9.154;2023-08-31T08:26:09;18.40;99.90
2024;DHT22;1016;48.770;9.154;2023-08-31T08:28:45;18.50;99.90
2024;DHT22;1016;48.770;9.154;2023-08-31T08:31:11;18.60;99.90
2024;DHT22;1016;48.770;9.154;2023-08-31T08:33:36;18.60;99.90
2024;DHT22;1016;48.770;9.154;2023-08-31T08:36:02;18.70;99.90
2024;DHT22;1016;48.770;9.154;2023-08-31T08:38:28;18.60;99.90
2024;DHT22;1016;48.770;9.154;2023-08-31T08:40:54;18.50;99.90
2024;DHT22;1016;48.770;9.154;2023-08-31T08:43:24;18.70;99.90
2024;DHT22;1016;48.770;9.154;2023-08-31T08:45:52;18.60;99.90
2024;DHT22;1016;48.770;9.154;2023-08-31T08:48:20;18.70;99.90
2024;DHT22;1016;48.770;9.154;2023-08-31T08:50:49;18.60;99.90
2024;DHT22;1016;48.770;9.154;2023-08-31T08:53:15;18.60;99.90
2024;DHT22;1016;48.770;9.154;2023-08-31T08:55:41;18.70;99.90
2024;DHT22;1016;48.770;9.154;2023-08-31T08:58:07;18.70;99.90
2024;DHT22;1016;48.770;9.154;2023-08-31T09:00:33;18.70;99.90
2024;DHT22;1016;48.770;9.154;2023-08-31T09:03:00;18.70;99.90
2024;DHT22;1016;48.770;9.154;2023-08-31T09:05:26;18.70;99.90
2024;DHT22;1016;48.770;9.154;2023-08-31T09:10:42;18.80;99.90
2024;DHT22;1016;48.770;9.154;2023-08-31T09:13:15;18.80;99.90
2024;DHT22;1016;48.770;9.154;2023-08-31T09:15:42;18.70;99.90
2024;DHT22;1016;48.770;9.154;2023-08-31T09:18:13;18.80;99.90
2024;DHT22;1016;48.770;9.154;2023-08-31T09:20:43;18.90;99.90
2024;DHT22;1016;48.770;9.154;2023-08-31T09:23:09;18.90;99.90
2024;DHT22;1016;48.770;9.154;2023-08-31T09:25:41;18.90;99.90
2024;DHT22;1016;48.770;9.154;2023-08-31T09:28:08;18.90;99.90
2024;DHT22;1016;48.770;9.154;2023-08-31T09:30:37;18.90;99.90
2024;DHT22;1016;48.770;9.154;2023-08-31T09:33:04;18.60;99.90
2024;DHT22;1016;48.770;9.154;2023-08-31T09:35:34;18.80;99.90
2024;DHT22;1016;48.770;9.154;2023-08-31T09:38:00;18.80;99.90
2024;DHT22;1016;48.770;9.154;2023-08-31T09:40:31;18.80;99.90
2024;DHT22;1016;48.770;9.154;2023-08-31T09:42:56;18.90;99.90
2024;DHT22;1016;48.770;9.154;2023-08-31T09:45:30;18.70;99.90
2024;DHT22;1016;48.770;9.154;2023-08-31T09:48:02;18.80;99.90
2024;DHT22;1016;48.770;9.154;2023-08-31T09:50:32;18.80;99.90
2024;DHT22;1016;48.770;9.154;2023-08-31T09:53:03;18.90;99.90
2024;DHT22;1016;48.770;9.154;2023-08-31T09:55:32;18.90;99.90
2024;DHT22;1016;48.770;9.154;2023-08-31T09:57:59;18.80;99.90
2024;DHT22;1016;48.770;9.154;2023-08-31T10:00:32;19.00;99.90
2024;DHT22;1016;48.770;9.154;2023-08-31T10:03:07;18.90;99.90
2024;DHT22;1016;48.770;9.154;2023-08-31T10:05:36;18.90;99.90
2024;DHT22;1016;48.770;9.154;2023-08-31T10:08:03;19.00;99.90
2024;DHT22;1016;48.770;9.154;2023-08-31T10:10:29;18.90;99.90
2024;DHT22;1016;48.770;9.154;2023-08-31T10:12:56;18.90;99.90
2024;DHT22;1016;48.770;9.154;2023-08-31T10:15:24;19.00;99.90
2024;DHT22;1016;48.770;9.154;2023-08-31T10:17:52;19.00;99.90
2024;DHT22;1016;48.770;9.154;2023-08-31T10:20:17;19.00;99.90
2024;DHT22;1016;48.770;9.154;2023-08-31T10:22:43;19.00;99.90
2024;DHT22;1016;48.770;9.154;2023-08-31T10:25:10;19.00;99.90
2024;DHT22;1016;48.770;9.154;2023-08-31T10:27:41;19.00;99.90
2024;DHT22;1016;48.770;9.154;2023-08-31T10:35:56;18.90;99.90
2024;DHT22;1016;48.770;9.154;2023-08-31T10:38:28;19.00;99.90
2024;DHT22;1016;48.770;9.154;2023-08-31T10:41:17;18.70;99.90
2024;DHT22;1016;48.770;9.154;2023-08-31T10:43:46;18.90;99.90
2024;DHT22;1016;48.770;9.154;2023-08-31T10:46:31;19.00;99.90
2024;DHT22;1016;48.770;9.154;2023-08-31T10:49:13;19.00;99.90
2024;DHT22;1016;48.770;9.154;2023-08-31T10:51:56;18.90;99.90
2024;DHT22;1016;48.770;9.154;2023-08-31T10:54:26;19.00;99.90
2024;DHT22;1016;48.770;9.154;2023-08-31T10:59:45;19.10;99.90
2024;DHT22;1016;48.770;9.154;2023-08-31T11:02:26;19.00;99.90
2024;DHT22;1016;48.770;9.154;2023-08-31T11:05:00;19.00;99.90
2024;DHT22;1016;48.770;9.154;2023-08-31T11:07:30;19.10;99.90
2024;DHT22;1016;48.770;9.154;2023-08-31T11:10:12;19.00;99.90
2024;DHT22;1016;48.770;9.154;2023-08-31T11:12:38;19.00;99.90
2024;DHT22;1016;48.770;9.154;2023-08-31T11:15:04;19.00;99.90
2024;DHT22;1016;48.770;9.154;2023-08-31T11:17:31;19.00;99.90
2024;DHT22;1016;48.770;9.154;2023-08-31T11:20:00;19.00;99.90
2024;DHT22;1016;48.770;9.154;2023-08-31T11:22:27;19.00;99.90
2024;DHT22;1016;48.770;9.154;2023-08-31T11:24:52;19.00;99.90
2024;DHT22;1016;48.770;9.154;2023-08-31T11:27:20;19.20;99.90
2024;DHT22;1016;48.770;9.154;2023-08-31T11:29:46;19.20;99.90
2024;DHT22;1016;48.770;9.154;2023-08-31T11:32:12;19.20;99.90
2024;DHT22;1016;48.770;9.154;2023-08-31T11:34:44;19.20;99.90
2024;DHT22;1016;48.770;9.154;2023-08-31T11:37:14;19.10;99.90
2024;DHT22;1016;48.770;9.154;2023-08-31T11:39:51;19.10;99.90
2024;DHT22;1016;48.770;9.154;2023-08-31T11:42:19;19.10;99.90
2024;DHT22;1016;48.770;9.154;2023-08-31T11:44:49;19.20;99.90
2024;DHT22;1016;48.770;9.154;2023-08-31T11:47:16;19.10;99.90
2024;DHT22;1016;48.770;9.154;2023-08-31T11:49:43;19.10;99.90
2024;DHT22;1016;48.770;9.154;2023-08-31T11:52:10;19.10;99.90
2024;DHT22;1016;48.770;9.154;2023-08-31T11:54:42;19.10;99.90
2024;DHT22;1016;48.770;9.154;2023-08-31T11:57:11;19.20;99.90
2024;DHT22;1016;48.770;9.154;2023-08-31T11:59:40;19.20;99.90
2024;DHT22;1016;48.770;9.154;2023-08-31T12:02:06;19.20;99.90
2024;DHT22;1016;48.770;9.154;2023-08-31T12:04:33;19.30;99.90
2024;DHT22;1016;48.770;9.154;2023-08-31T12:07:06;19.30;99.90
2024;DHT22;1016;48.770;9.154;2023-08-31T12:09:32;19.30;99.90
2024;DHT22;1016;48.770;9.154;2023-08-31T12:11:59;19.20;99.90
2024;DHT22;1016;48.770;9.154;2023-08-31T12:14:30;19.30;99.90
2024;DHT22;1016;48.770;9.154;2023-08-31T12:17:05;19.10;99.90
2024;DHT22;1016;48.770;9.154;2023-08-31T12:19:31;19.30;99.90
2024;DHT22;1016;48.770;9.154;2023-08-31T12:21:57;19.30;99.90
2024;DHT22;1016;48.770;9.154;2023-08-31T12:24:24;19.30;99.90
2024;DHT22;1016;48.770;9.154;2023-08-31T12:26:50;19.40;99.90
2024;DHT22;1016;48.770;9.154;2023-08-31T12:29:16;19.30;99.90
2024;DHT22;1016;48.770;9.154;2023-08-31T12:31:42;19.40;99.90
2024;DHT22;1016;48.770;9.154;2023-08-31T12:34:09;19.10;99.90
2024;DHT22;1016;48.770;9.154;2023-08-31T12:36:35;19.30;99.90
2024;DHT22;1016;48.770;9.154;2023-08-31T12:39:16;19.40;99.90
2024;DHT22;1016;48.770;9.154;2023-08-31T12:41:42;19.40;99.90
2024;DHT22;1016;48.770;9.154;2023-08-31T12:44:18;19.40;99.90
2024;DHT22;1016;48.770;9.154;2023-08-31T12:46:46;19.50;99.90
2024;DHT22;1016;48.770;9.154;2023-08-31T12:49:11;19.40;99.90
2024;DHT22;1016;48.770;9.154;2023-08-31T12:51:37;19.40;99.90
2024;DHT22;1016;48.770;9.154;2023-08-31T12:54:03;19.40;99.90
2024;DHT22;1016;48.770;9.154;2023-08-31T12:56:32;19.30;99.90
2024;DHT22;1016;48.770;9.154;2023-08-31T12:58:58;19.30;99.90
2024;DHT22;1016;48.770;9.154;2023-08-31T13:01:23;19.40;99.90
2024;DHT22;1016;48.770;9.154;2023-08-31T13:03:51;19.30;99.90
2024;DHT22;1016;48.770;9.154;2023-08-31T13:06:18;19.40;99.90
2024;DHT22;1016;48.770;9.154;2023-08-31T13:08:44;19.50;99.90
2024;DHT22;1016;48.770;9.154;2023-08-31T13:11:12;19.50;99.90
2024;DHT22;1016;48.770;9.154;2023-08-31T13:13:38;19.40;99.90
2024;DHT22;1016;48.770;9.154;2023-08-31T13:16:04;19.50;99.90
2024;DHT22;1016;48.770;9.154;2023-08-31T13:18:30;19.50;99.90
2024;DHT22;1016;48.770;9.154;2023-08-31T13:20:56;19.50;99.90
2024;DHT22;1016;48.770;9.154;2023-08-31T13:23:24;19.40;99.90
2024;DHT22;1016;48.770;9.154;2023-08-31T13:25:50;19.40;99.90
2024;DHT22;1016;48.770;9.154;2023-08-31T13:28:17;19.40;99.90
2024;DHT22;1016;48.770;9.154;2023-08-31T13:30:42;19.40;99.90
2024;DHT22;1016;48.770;9.154;2023-08-31T13:33:08;19.40;99.90
2024;DHT22;1016;48.770;9.154;2023-08-31T13:35:35;19.40;99.90
2024;DHT22;1016;48.770;9.154;2023-08-31T13:38:01;19.40;99.90
2024;DHT22;1016;48.770;9.154;2023-08-31T13:40:28;19.60;99.90
2024;DHT22;1016;48.770;9.154;2023-08-31T13:42:56;19.40;99.90
2024;DHT22;1016;48.770;9.154;2023-08-31T13:45:28;19.40;99.90
2024;DHT22;1016;48.770;9.154;2023-08-31T13:47:55;19.50;99.90
2024;DHT22;1016;48.770;9.154;2023-08-31T13:50:22;19.50;99.90
2024;DHT22;1016;48.770;9.154;2023-08-31T13:52:47;19.50;99.90
2024;DHT22;1016;48.770;9.154;2023-08-31T13:55:13;19.50;99.90
2024;DHT22;1016;48.770;9.154;2023-08-31T13:57:41;19.50;99.90
2024;DHT22;1016;48.770;9.154;2023-08-31T14:00:08;19.50;99.90
2024;DHT22;1016;48.770;9.154;2023-08-31T14:02:37;19.50;99.90
2024;DHT22;1016;48.770;9.154;2023-08-31T14:05:03;19.70;99.90
2024;DHT22;1016;48.770;9.154;2023-08-31T14:07:29;19.50;99.90
2024;DHT22;1016;48.770;9.154;2023-08-31T14:09:55;19.70;99.90
2024;DHT22;1016;48.770;9.154;2023-08-31T14:12:20;19.60;99.90
2024;DHT22;1016;48.770;9.154;2023-08-31T14:14:47;19.60;99.90
2024;DHT22;1016;48.770;9.154;2023-08-31T14:17:13;19.50;99.90
2024;DHT22;1016;48.770;9.154;2023-08-31T14:19:38;19.60;99.90
2024;DHT22;1016;48.770;9.154;2023-08-31T14:22:05;19.60;99.90
2024;DHT22;1016;48.770;9.154;2023-08-31T14:24:31;19.60;99.90
2024;DHT22;1016;48.770;9.154;2023-08-31T14:26:56;19.60;99.90
2024;DHT22;1016;48.770;9.154;2023-08-31T14:29:23;19.60;99.90
2024;DHT22;1016;48.770;9.154;2023-08-31T14:31:48;19.50;99.90
2024;DHT22;1016;48.770;9.154;2023-08-31T14:34:14;19.60;99.90
2024;DHT22;1016;48.770;9.154;2023-08-31T14:36:40;19.70;99.90
2024;DHT22;1016;48.770;9.154;2023-08-31T14:39:05;19.60;99.90
2024;DHT22;1016;48.770;9.154;2023-08-31T14:41:31;19.70;99.90
2024;DHT22;1016;48.770;9.154;2023-08-31T14:43:56;19.60;99.90
2024;DHT22;1016;48.770;9.154;2023-08-31T14:46:22;19.60;99.90
2024;DHT22;1016;48.770;9.154;2023-08-31T14:48:50;19.60;99.90
2024;DHT22;1016;48.770;9.154;2023-08-31T14:51:16;19.60;99.90
2024;DHT22;1016;48.770;9.154;2023-08-31T14:53:41;19.60;99.90
2024;DHT22;1016;48.770;9.154;2023-08-31T14:56:07;19.70;99.90
2024;DHT22;1016;48.770;9.154;2023-08-31T14:58:35;19.60;99.90
2024;DHT22;1016;48.770;9.154;2023-08-31T15:01:01;19.60;99.90
2024;DHT22;1016;48.770;9.154;2023-08-31T15:03:28;19.60;99.90
2024;DHT22;1016;48.770;9.154;2023-08-31T15:05:55;19.60;99.90
2024;DHT22;1016;48.770;9.154;2023-08-31T15:08:34;19.70;99.90
2024;DHT22;1016;48.770;9.154;2023-08-31T15:11:01;19.50;99.90
2024;DHT22;1016;48.770;9.154;2023-08-31T15:13:29;19.70;99.90
2024;DHT22;1016;48.770;9.154;2023-08-31T15:15:54;19.60;99.90
2024;DHT22;1016;48.770;9.154;2023-08-31T15:18:20;19.60;99.90
2024;DHT22;1016;48.770;9.154;2023-08-31T15:20:47;19.60;99.90
2024;DHT22;1016;48.770;9.154;2023-08-31T15:23:13;19.70;99.90
2024;DHT22;1016;48.770;9.154;2023-08-31T15:25:39;19.70;99.90
2024;DHT22;1016;48.770;9.154;2023-08-31T15:28:05;19.60;99.90
2024;DHT22;1016;48.770;9.154;2023-08-31T15:30:33;19.60;99.90
2024;DHT22;1016;48.770;9.154;2023-08-31T15:33:04;19.70;99.90
2024;DHT22;1016;48.770;9.154;2023-08-31T15:35:31;19.60;99.90
2024;DHT22;1016;48.770;9.154;2023-08-31T15:37:58;19.60;99.90
2024;DHT22;1016;48.770;9.154;2023-08-31T15:40:25;19.60;99.90
2024;DHT22;1016;48.770;9.154;2023-08-31T15:42:51;19.60;99.90
2024;DHT22;1016;48.770;9.154;2023-08-31T15:45:17;19.70;99.90
2024;DHT22;1016;48.770;9.154;2023-08-31T15:47:43;19.80;99.90
2024;DHT22;1016;48.770;9.154;2023-08-31T15:50:08;19.60;99.90
2024;DHT22;1016;48.770;9.154;2023-08-31T15:52:34;19.60;99.90
2024;DHT22;1016;48.770;9.154;2023-08-31T15:55:02;19.60;99.90
2024;DHT22;1016;48.770;9.154;2023-08-31T15:57:29;19.60;99.90
2024;DHT22;1016;48.770;9.154;2023-08-31T15:59:58;19.60;99.90
2024;DHT22;1016;48.770;9.154;2023-08-31T16:02:25;19.60;99.90
2024;DHT22;1016;48.770;9.154;2023-08-31T16:04:55;19.60;99.90
2024;DHT22;1016;48.770;9.154;2023-08-31T16:07:22;19.70;99.90
2024;DHT22;1016;48.770;9.154;2023-08-31T16:09:51;19.70;99.90
2024;DHT22;1016;48.770;9.154;2023-08-31T16:12:18;19.60;99.90
2024;DHT22;1016;48.770;9.154;2023-08-31T16:14:48;19.60;99.90
2024;DHT22;1016;48.770;9.154;2023-08-31T16:17:16;19.70;99.90
2024;DHT22;1016;48.770;9.154;2023-08-31T16:19:41;19.60;99.90
2024;DHT22;1016;48.770;9.154;2023-08-31T16:22:07;19.70;99.90